Terminal Aerodrome Forecast
Issued by NWS

Home | Current Version | Previous Version | Text Only | Print | Product List | Glossary On
Versions: 1 2 3 4 5 6 7 8 9 10 11 12 13 14 15 16 17 18 19 20 21
000
FTUS44 KHGX 202325
TAFLBX
TAF
KLBX 202325Z 2100/2124 17010KT P6SM SCT250
     FM210800 VRB03KT 4SM BR FEW003 SCT080
      TEMPO 2109/2113 1/2SM FG OVC002
     FM211400 18007KT P6SM BKN012
     FM211600 17009KT P6SM FEW015 SCT250
     FM212000 17012KT P6SM SCT150=

USA.gov is the U.S. government's official web portal to all federal, state and local government web resources and services.